createdAt,value
2018-02-25T00:01:49.720Z,-8.40
2018-02-25T00:04:27.716Z,-8.40
2018-02-25T00:06:59.696Z,-8.40
2018-02-25T00:09:33.584Z,-8.40
2018-02-25T00:12:01.595Z,-8.40
2018-02-25T00:14:31.399Z,-8.40
2018-02-25T00:17:02.138Z,-8.40
2018-02-25T00:19:31.911Z,-8.50
2018-02-25T00:22:01.943Z,-8.50
2018-02-25T00:24:30.856Z,-8.50
2018-02-25T00:27:05.308Z,-8.50
2018-02-25T00:29:33.347Z,-8.40
2018-02-25T00:32:16.184Z,-8.60
2018-02-25T00:34:51.063Z,-8.70
2018-02-25T00:37:19.985Z,-8.70
2018-02-25T00:39:49.815Z,-8.80
2018-02-25T00:42:24.668Z,-8.80
2018-02-25T00:44:54.763Z,-8.60
2018-02-25T00:47:29.142Z,-8.90
2018-02-25T00:49:58.071Z,-8.90
2018-02-25T00:52:27.011Z,-9.00
2018-02-25T00:55:01.191Z,-9.10
2018-02-25T00:57:31.135Z,-8.90
2018-02-25T01:00:00.135Z,-8.70
2018-02-25T01:02:39.368Z,-8.70
2018-02-25T01:05:08.363Z,-8.60
2018-02-25T01:07:38.403Z,-8.40
2018-02-25T01:10:06.419Z,-8.30
2018-02-25T01:12:40.327Z,-8.30
2018-02-25T01:15:09.347Z,-8.40
2018-02-25T01:17:37.363Z,-8.60
2018-02-25T01:20:11.414Z,-8.60
2018-02-25T01:22:39.459Z,-8.70
2018-02-25T01:25:13.003Z,-8.80
2018-02-25T01:27:44.579Z,-8.90
2018-02-25T01:30:14.371Z,-8.90
2018-02-25T01:32:42.410Z,-8.90
2018-02-25T01:35:11.407Z,-8.90
2018-02-25T01:37:52.163Z,-9.00
2018-02-25T01:40:34.534Z,-9.00
2018-02-25T01:43:08.770Z,-8.70
2018-02-25T01:45:38.728Z,-8.80
2018-02-25T01:48:10.174Z,-8.80
2018-02-25T01:50:50.378Z,-9.00
2018-02-25T01:53:21.487Z,-9.10
2018-02-25T01:55:54.243Z,-9.30
2018-02-25T01:58:39.571Z,-9.20
2018-02-25T02:01:07.608Z,-9.30
2018-02-25T02:03:35.623Z,-9.40
2018-02-25T02:06:12.362Z,-9.50
2018-02-25T02:08:47.959Z,-9.60
2018-02-25T02:11:17.923Z,-9.60
2018-02-25T02:13:46.883Z,-9.40
2018-02-25T02:16:20.411Z,-9.40
2018-02-25T02:19:00.599Z,-9.60
2018-02-25T02:21:31.694Z,-9.60
2018-02-25T02:24:00.683Z,-9.50
2018-02-25T02:26:32.331Z,-9.50
2018-02-25T02:29:00.347Z,-9.50
2018-02-25T02:31:33.719Z,-9.50
2018-02-25T02:34:01.750Z,-9.60
2018-02-25T02:36:39.857Z,-9.50
2018-02-25T02:39:12.924Z,-9.50
2018-02-25T02:41:44.732Z,-9.50
2018-02-25T02:44:20.148Z,-9.60
2018-02-25T02:46:56.227Z,-9.60
2018-02-25T02:49:35.674Z,-9.60
2018-02-25T02:52:06.738Z,-9.50
2018-02-25T02:54:48.139Z,-9.70
2018-02-25T02:57:23.188Z,-9.70
2018-02-25T02:59:51.191Z,-9.80
2018-02-25T03:02:19.260Z,-9.90
2018-02-25T03:04:48.270Z,-9.80
2018-02-25T03:07:36.110Z,-9.80
2018-02-25T03:10:17.121Z,-9.70
2018-02-25T03:12:51.351Z,-9.70
2018-02-25T03:15:21.294Z,-9.70
2018-02-25T03:17:49.323Z,-9.60
2018-02-25T03:20:19.250Z,-9.70
2018-02-25T03:22:52.938Z,-9.80
2018-02-25T03:25:24.072Z,-9.80
2018-02-25T03:27:52.039Z,-9.90
2018-02-25T03:30:24.346Z,-9.80
2018-02-25T03:32:52.370Z,-9.80
2018-02-25T03:35:20.378Z,-9.90
2018-02-25T03:37:58.466Z,-9.90
2018-02-25T03:40:29.431Z,-10.00
2018-02-25T03:42:59.480Z,-10.00
2018-02-25T03:45:47.527Z,-10.00
2018-02-25T03:48:21.814Z,-10.10
2018-02-25T03:50:55.622Z,-10.10
2018-02-25T03:53:27.287Z,-10.10
2018-02-25T03:55:56.238Z,-10.10
2018-02-25T03:58:26.175Z,-10.10
2018-02-25T04:01:00.306Z,-10.00
2018-02-25T04:03:33.387Z,-9.90
2018-02-25T04:06:02.323Z,-10.00
2018-02-25T04:08:36.846Z,-9.80
2018-02-25T04:11:15.771Z,-9.80
2018-02-25T04:13:44.694Z,-9.80
2018-02-25T04:16:16.562Z,-9.80
2018-02-25T04:18:49.098Z,-9.90
2018-02-25T04:21:18.838Z,-10.00
2018-02-25T04:23:59.889Z,-10.00
2018-02-25T04:26:29.807Z,-10.00
2018-02-25T04:28:59.722Z,-10.00
2018-02-25T04:31:32.738Z,-10.00
2018-02-25T04:34:00.787Z,-10.10
2018-02-25T04:36:33.278Z,-10.20
2018-02-25T04:39:01.379Z,-10.10
2018-02-25T04:41:33.838Z,-10.10
2018-02-25T04:44:01.898Z,-10.20
2018-02-25T04:46:36.058Z,-10.20
2018-02-25T04:49:18.806Z,-10.20
2018-02-25T04:51:46.834Z,-10.20
2018-02-25T04:54:18.052Z,-10.30
2018-02-25T04:56:47.954Z,-10.30
2018-02-25T04:59:15.990Z,-10.40
2018-02-25T05:01:44.051Z,-10.40
2018-02-25T05:04:12.117Z,-10.40
2018-02-25T05:06:40.174Z,-10.50
2018-02-25T05:09:08.974Z,-10.60
2018-02-25T05:11:38.025Z,-10.60
2018-02-25T05:14:10.090Z,-10.70
2018-02-25T05:16:43.662Z,-10.70
2018-02-25T05:19:11.698Z,-10.70
2018-02-25T05:21:40.654Z,-10.60
2018-02-25T05:24:09.654Z,-10.70
2018-02-25T05:26:42.229Z,-10.90
2018-02-25T05:29:11.034Z,-11.00
2018-02-25T05:31:47.227Z,-11.10
2018-02-25T05:34:32.434Z,-11.00
2018-02-25T05:37:00.438Z,-11.00
2018-02-25T05:39:30.463Z,-10.80
2018-02-25T05:42:00.462Z,-10.60
2018-02-25T05:44:29.254Z,-10.80
2018-02-25T05:46:58.226Z,-10.90
2018-02-25T05:49:27.086Z,-10.90
2018-02-25T05:51:59.835Z,-11.00
2018-02-25T05:54:31.742Z,-10.80
2018-02-25T05:56:59.766Z,-10.90
2018-02-25T05:59:27.789Z,-10.70
2018-02-25T06:01:56.714Z,-10.70
2018-02-25T06:04:24.742Z,-10.70
2018-02-25T06:06:56.693Z,-10.90
2018-02-25T06:09:25.618Z,-10.90
2018-02-25T06:11:54.406Z,-10.80
2018-02-25T06:14:28.292Z,-10.80
2018-02-25T06:16:57.269Z,-10.80
2018-02-25T06:19:25.326Z,-10.70
2018-02-25T06:21:54.122Z,-10.60
2018-02-25T06:24:22.146Z,-10.60
2018-02-25T06:26:59.785Z,-10.60
2018-02-25T06:29:27.814Z,-10.50
2018-02-25T06:32:01.054Z,-10.50
2018-02-25T06:34:29.990Z,-10.50
2018-02-25T06:36:58.009Z,-10.30
2018-02-25T06:39:28.022Z,-10.30
2018-02-25T06:41:57.925Z,-10.30
2018-02-25T06:44:27.833Z,-10.20
2018-02-25T06:46:55.857Z,-10.20
2018-02-25T06:49:26.553Z,-9.90
2018-02-25T06:51:58.121Z,-10.00
2018-02-25T06:54:27.013Z,-9.90
2018-02-25T06:56:55.027Z,-9.80
2018-02-25T06:59:23.037Z,-9.80
2018-02-25T07:01:51.046Z,-9.80
2018-02-25T07:04:19.833Z,-9.60
2018-02-25T07:06:48.614Z,-9.50
2018-02-25T07:09:25.411Z,-9.40
2018-02-25T07:11:55.929Z,-9.40
2018-02-25T07:14:25.921Z,-9.00
2018-02-25T07:17:04.669Z,-8.40
2018-02-25T07:19:56.962Z,-7.70
2018-02-25T07:22:24.965Z,-7.70
2018-02-25T07:24:53.765Z,-7.60
2018-02-25T07:27:27.413Z,-7.70
2018-02-25T07:29:56.413Z,-7.50
2018-02-25T07:32:29.389Z,-7.30
2018-02-25T07:35:00.790Z,-7.00
2018-02-25T07:37:30.749Z,-6.70
2018-02-25T07:39:59.729Z,-6.40
2018-02-25T07:42:33.791Z,-6.30
2018-02-25T07:45:02.740Z,-6.50
2018-02-25T07:47:37.397Z,-6.70
2018-02-25T07:50:23.733Z,-6.50
2018-02-25T07:53:04.578Z,-6.40
2018-02-25T07:55:33.397Z,-5.40
2018-02-25T07:58:03.369Z,-5.40
2018-02-25T08:00:33.401Z,-4.80
2018-02-25T08:03:11.870Z,-5.00
2018-02-25T08:05:49.747Z,-5.00
2018-02-25T08:08:24.363Z,-4.30
2018-02-25T08:10:52.377Z,-4.20
2018-02-25T08:13:20.613Z,-3.90
2018-02-25T08:15:50.349Z,-2.80
2018-02-25T08:18:19.414Z,-2.80
2018-02-25T08:20:47.429Z,-2.70
2018-02-25T08:23:15.486Z,-2.70
2018-02-25T08:25:43.497Z,-2.30
2018-02-25T08:28:13.180Z,-2.10
2018-02-25T08:30:41.193Z,-2.10
2018-02-25T08:33:10.145Z,-2.10
2018-02-25T08:35:40.050Z,-2.20
2018-02-25T08:38:11.376Z,-1.70
2018-02-25T08:40:42.447Z,-1.90
2018-02-25T08:43:11.370Z,-1.90
2018-02-25T08:45:39.401Z,-1.70
2018-02-25T08:48:07.457Z,-1.70
2018-02-25T08:50:36.349Z,-1.40
2018-02-25T08:53:04.365Z,-1.40
2018-02-25T08:55:32.396Z,-1.60
2018-02-25T08:58:00.417Z,-1.80
2018-02-25T09:00:30.373Z,-1.20
2018-02-25T09:02:58.381Z,-0.60
2018-02-25T09:05:27.228Z,-0.10
2018-02-25T09:07:57.133Z,-0.10
2018-02-25T09:10:28.693Z,-0.70
2018-02-25T09:12:56.712Z,-1.50
2018-02-25T09:15:24.744Z,-0.60
2018-02-25T09:17:57.928Z,1.00
2018-02-25T09:20:32.316Z,1.30
2018-02-25T09:23:01.218Z,1.80
2018-02-25T09:25:29.228Z,1.80
2018-02-25T09:27:57.228Z,2.20
2018-02-25T09:30:26.124Z,2.40
2018-02-25T09:32:54.153Z,2.30
2018-02-25T09:35:23.053Z,2.90
2018-02-25T09:37:57.532Z,3.10
2018-02-25T09:40:25.537Z,3.10
2018-02-25T09:42:53.553Z,1.70
2018-02-25T09:45:22.464Z,0.50
2018-02-25T09:47:50.477Z,1.00
2018-02-25T09:50:19.252Z,3.20
2018-02-25T09:52:48.214Z,3.20
2018-02-25T09:55:18.129Z,4.10
2018-02-25T09:57:46.136Z,3.70
2018-02-25T10:00:15.133Z,3.50
2018-02-25T10:02:44.943Z,4.90
2018-02-25T10:05:13.264Z,4.90
2018-02-25T10:07:41.264Z,4.20
2018-02-25T10:10:12.601Z,4.90
2018-02-25T10:12:40.624Z,5.50
2018-02-25T10:15:10.284Z,3.50
2018-02-25T10:17:38.297Z,3.50
2018-02-25T10:20:06.308Z,3.20
2018-02-25T10:22:35.297Z,4.10
2018-02-25T10:25:05.319Z,4.50
2018-02-25T10:27:33.337Z,5.10
2018-02-25T10:30:03.116Z,6.00
2018-02-25T10:32:32.016Z,5.90
2018-02-25T10:35:00.027Z,6.10
2018-02-25T10:37:30.718Z,7.50
2018-02-25T10:39:58.720Z,7.50
2018-02-25T10:42:26.771Z,7.60
2018-02-25T10:44:55.544Z,8.60
2018-02-25T10:47:26.668Z,8.60
2018-02-25T10:49:54.680Z,7.30
2018-02-25T10:52:25.408Z,5.50
2018-02-25T10:54:59.345Z,4.50
2018-02-25T10:57:28.280Z,4.50
2018-02-25T10:59:56.284Z,5.50
2018-02-25T11:02:24.292Z,7.00
2018-02-25T11:04:52.300Z,7.40
2018-02-25T11:07:26.984Z,4.90
2018-02-25T11:10:00.153Z,3.60
2018-02-25T11:12:32.755Z,6.00
2018-02-25T11:15:00.783Z,6.00
2018-02-25T11:17:31.599Z,8.70
2018-02-25T11:19:59.604Z,8.70
2018-02-25T11:22:27.612Z,8.80
2018-02-25T11:24:55.632Z,9.20
2018-02-25T11:27:23.656Z,9.00
2018-02-25T11:29:51.656Z,8.50
2018-02-25T11:32:21.339Z,9.10
2018-02-25T11:34:53.935Z,9.10
2018-02-25T11:37:22.020Z,10.00
2018-02-25T11:39:51.724Z,6.30
2018-02-25T11:42:23.542Z,5.90
2018-02-25T11:44:52.092Z,5.90
2018-02-25T11:47:23.304Z,8.80
2018-02-25T11:49:51.592Z,8.80
2018-02-25T11:52:20.044Z,8.60
2018-02-25T11:54:48.467Z,8.60
2018-02-25T11:57:16.708Z,10.10
2018-02-25T11:59:45.136Z,10.60
2018-02-25T12:02:13.404Z,8.00
2018-02-25T12:04:41.466Z,7.20
2018-02-25T12:07:10.883Z,8.10
2018-02-25T12:09:38.908Z,10.10
2018-02-25T12:12:08.223Z,10.00
2018-02-25T12:14:37.980Z,11.40
2018-02-25T12:17:06.020Z,11.40
2018-02-25T12:19:34.016Z,8.10
2018-02-25T12:22:02.944Z,6.70
2018-02-25T12:24:31.777Z,6.40
2018-02-25T12:27:01.160Z,7.40
2018-02-25T12:29:30.934Z,9.70
2018-02-25T12:31:58.940Z,9.70
2018-02-25T12:34:26.947Z,10.30
2018-02-25T12:36:54.976Z,10.60
2018-02-25T12:39:27.088Z,9.60
2018-02-25T12:41:55.098Z,9.90
2018-02-25T12:44:24.864Z,11.60
2018-02-25T12:46:52.879Z,11.60
2018-02-25T12:49:34.415Z,11.60
2018-02-25T12:52:02.435Z,11.60
2018-02-25T12:54:31.208Z,11.30
2018-02-25T12:56:59.223Z,11.30
2018-02-25T12:59:29.175Z,12.70
2018-02-25T13:01:58.068Z,12.90
2018-02-25T13:04:26.971Z,12.80
2018-02-25T13:06:55.879Z,10.20
2018-02-25T13:09:24.664Z,9.80
2018-02-25T13:11:57.400Z,9.40
2018-02-25T13:14:29.272Z,9.30
2018-02-25T13:16:59.164Z,9.20
2018-02-25T13:19:29.079Z,8.20
2018-02-25T13:21:57.086Z,6.80
2018-02-25T13:24:27.105Z,8.20
2018-02-25T13:26:57.855Z,10.30
2018-02-25T13:29:27.611Z,10.40
2018-02-25T13:31:55.647Z,10.40
2018-02-25T13:34:23.700Z,9.70
2018-02-25T13:36:51.664Z,9.40
2018-02-25T13:39:25.019Z,7.90
2018-02-25T13:41:53.019Z,7.80
2018-02-25T13:44:21.043Z,7.70
2018-02-25T13:46:49.039Z,4.70
2018-02-25T13:49:18.019Z,4.10
2018-02-25T13:51:46.023Z,6.00
2018-02-25T13:54:14.024Z,6.40
2018-02-25T13:56:42.944Z,6.50
2018-02-25T13:59:10.951Z,7.50
2018-02-25T14:01:43.391Z,7.30
2018-02-25T14:04:11.399Z,7.20
2018-02-25T14:06:47.715Z,7.10
2018-02-25T14:09:15.715Z,7.30
2018-02-25T14:11:45.615Z,7.40
2018-02-25T14:14:14.600Z,7.60
2018-02-25T14:16:42.607Z,8.30
2018-02-25T14:19:15.487Z,6.40
2018-02-25T14:21:44.259Z,6.80
2018-02-25T14:24:22.975Z,6.80
2018-02-25T14:26:55.940Z,6.90
2018-02-25T14:29:24.956Z,7.00
2018-02-25T14:31:54.943Z,8.20
2018-02-25T14:34:22.939Z,8.50
2018-02-25T14:36:57.723Z,8.10
2018-02-25T14:39:27.459Z,8.50
2018-02-25T14:41:55.503Z,8.50
2018-02-25T14:44:26.871Z,7.70
2018-02-25T14:46:56.831Z,7.10
2018-02-25T14:49:24.871Z,7.70
2018-02-25T14:51:58.174Z,7.90
2018-02-25T14:54:39.304Z,7.20
2018-02-25T14:57:14.759Z,6.90
2018-02-25T14:59:44.511Z,6.50
2018-02-25T15:02:13.523Z,6.50
2018-02-25T15:04:42.291Z,4.50
2018-02-25T15:07:12.916Z,5.00
2018-02-25T15:09:42.813Z,5.00
2018-02-25T15:12:18.943Z,5.30
2018-02-25T15:14:47.641Z,5.50
2018-02-25T15:17:22.079Z,6.40
2018-02-25T15:19:50.087Z,6.70
2018-02-25T15:22:18.867Z,6.30
2018-02-25T15:24:47.788Z,6.30
2018-02-25T15:27:23.271Z,5.80
2018-02-25T15:29:57.791Z,5.60
2018-02-25T15:32:33.343Z,5.10
2018-02-25T15:35:02.446Z,5.10
2018-02-25T15:37:31.450Z,4.10
2018-02-25T15:40:05.135Z,2.80
2018-02-25T15:42:33.135Z,2.80
2018-02-25T15:45:01.943Z,3.80
2018-02-25T15:47:31.887Z,3.80
2018-02-25T15:49:59.899Z,4.00
2018-02-25T15:52:29.883Z,3.60
2018-02-25T15:55:02.461Z,3.40
2018-02-25T15:57:32.422Z,3.20
2018-02-25T16:00:03.107Z,2.80
2018-02-25T16:02:31.112Z,2.80
2018-02-25T16:04:59.875Z,2.80
2018-02-25T16:07:29.871Z,2.70
2018-02-25T16:09:57.871Z,2.30
2018-02-25T16:12:26.775Z,2.20
2018-02-25T16:14:58.459Z,1.90
2018-02-25T16:17:26.480Z,1.90
2018-02-25T16:19:54.507Z,1.80
2018-02-25T16:22:27.006Z,0.10
2018-02-25T16:24:55.934Z,0.10
2018-02-25T16:27:24.691Z,-0.40
2018-02-25T16:29:57.167Z,-0.40
2018-02-25T16:32:29.007Z,-0.70
2018-02-25T16:34:58.027Z,-1.30
2018-02-25T16:37:29.562Z,-1.70
2018-02-25T16:39:57.587Z,-2.30
2018-02-25T16:42:28.247Z,-3.00
2018-02-25T16:44:57.018Z,-3.70
2018-02-25T16:47:25.035Z,-3.80
2018-02-25T16:49:53.042Z,-4.50
2018-02-25T16:52:21.823Z,-5.40
2018-02-25T16:54:51.603Z,-5.60
2018-02-25T16:57:19.622Z,-5.60
2018-02-25T17:02:09.595Z,-5.90
2018-02-25T17:04:43.263Z,-6.30
2018-02-25T17:07:11.271Z,-6.30
2018-02-25T17:09:41.066Z,-6.50
2018-02-25T17:12:10.034Z,-6.50
2018-02-25T17:14:42.598Z,-6.50
2018-02-25T17:17:10.599Z,-6.60
2018-02-25T17:19:38.602Z,-6.70
2018-02-25T17:22:07.502Z,-6.70
2018-02-25T17:24:37.451Z,-6.80
2018-02-25T17:27:10.282Z,-6.80
2018-02-25T17:29:40.035Z,-6.90
2018-02-25T17:32:08.043Z,-6.90
2018-02-25T17:34:45.058Z,-7.00
2018-02-25T17:37:14.995Z,-7.10
2018-02-25T17:39:43.980Z,-7.00
2018-02-25T17:42:12.751Z,-7.10
2018-02-25T17:44:56.519Z,-7.10
2018-02-25T17:47:26.570Z,-7.10
2018-02-25T17:49:55.522Z,-7.10
2018-02-25T17:52:27.183Z,-7.20
2018-02-25T17:54:55.214Z,-7.30
2018-02-25T17:57:23.215Z,-7.40
2018-02-25T17:59:51.630Z,-7.40
2018-02-25T18:02:19.634Z,-7.50
2018-02-25T18:04:53.984Z,-7.60
2018-02-25T18:07:26.954Z,-7.60
2018-02-25T18:09:56.882Z,-7.70
2018-02-25T18:12:25.883Z,-7.80
2018-02-25T18:14:53.890Z,-7.70
2018-02-25T18:17:22.674Z,-7.90
2018-02-25T18:19:52.352Z,-7.90
2018-02-25T18:22:20.390Z,-7.90
2018-02-25T18:24:50.158Z,-7.90
2018-02-25T18:27:19.131Z,-8.00
2018-02-25T18:29:47.142Z,-8.00
2018-02-25T18:32:17.090Z,-8.00
2018-02-25T18:34:45.134Z,-8.00
2018-02-25T18:37:14.062Z,-7.90
2018-02-25T18:39:45.329Z,-7.90
2018-02-25T18:42:13.355Z,-8.00
2018-02-25T18:44:56.227Z,-8.10
2018-02-25T18:47:26.943Z,-8.30
2018-02-25T18:49:59.223Z,-8.30
2018-02-25T18:52:27.438Z,-8.30
2018-02-25T18:54:57.430Z,-8.30
2018-02-25T18:57:27.098Z,-8.40
2018-02-25T18:59:57.199Z,-8.50
2018-02-25T19:02:26.206Z,-8.30
2018-02-25T19:04:58.686Z,-8.40
2018-02-25T19:07:27.678Z,-8.40
2018-02-25T19:09:55.694Z,-8.40
2018-02-25T19:15:18.250Z,-8.50
2018-02-25T19:17:52.118Z,-8.40
2018-02-25T19:20:20.138Z,-8.50
2018-02-25T19:22:48.142Z,-8.40
2018-02-25T19:25:33.618Z,-8.30
2018-02-25T19:28:01.627Z,-8.40
2018-02-25T19:30:30.406Z,-8.50
2018-02-25T19:33:03.374Z,-8.50
2018-02-25T19:35:37.914Z,-8.40
2018-02-25T19:38:11.706Z,-8.40
2018-02-25T19:40:48.434Z,-8.50
2018-02-25T19:43:16.482Z,-8.50
2018-02-25T19:45:49.224Z,-8.70
2018-02-25T19:48:17.247Z,-8.70
2018-02-25T19:50:45.266Z,-8.60
2018-02-25T19:53:14.258Z,-8.60
2018-02-25T19:55:54.469Z,-8.60
2018-02-25T19:58:32.281Z,-8.60
2018-02-25T20:01:02.215Z,-8.50
2018-02-25T20:03:32.246Z,-8.50
2018-02-25T20:06:04.010Z,-8.50
2018-02-25T20:08:32.990Z,-8.50
2018-02-25T20:11:01.014Z,-8.50
2018-02-25T20:13:29.939Z,-8.40
2018-02-25T20:16:01.949Z,-8.40
2018-02-25T20:18:30.806Z,-8.40
2018-02-25T20:20:58.825Z,-8.40
2018-02-25T20:23:26.856Z,-8.30
2018-02-25T20:25:54.866Z,-8.30
2018-02-25T20:28:27.499Z,-8.50
2018-02-25T20:30:55.546Z,-8.50
2018-02-25T20:33:24.453Z,-8.50
2018-02-25T20:35:55.593Z,-8.50
2018-02-25T20:38:24.617Z,-8.60
2018-02-25T20:40:54.402Z,-8.80
2018-02-25T20:43:26.581Z,-8.80
2018-02-25T20:45:54.602Z,-8.80
2018-02-25T20:48:29.938Z,-8.80
2018-02-25T20:50:57.955Z,-8.90
2018-02-25T20:53:27.170Z,-9.00
2018-02-25T20:55:55.941Z,-9.10
2018-02-25T20:58:24.910Z,-9.10
2018-02-25T21:00:56.678Z,-9.20
2018-02-25T21:03:24.698Z,-9.30
2018-02-25T21:05:52.722Z,-9.40
2018-02-25T21:08:20.739Z,-9.40
2018-02-25T21:10:48.774Z,-9.30
2018-02-25T21:13:37.245Z,-9.30
2018-02-25T21:16:08.049Z,-9.40
2018-02-25T21:18:36.070Z,-9.40
2018-02-25T21:21:08.142Z,-9.40
2018-02-25T21:23:36.974Z,-9.40
2018-02-25T21:26:05.982Z,-9.30
2018-02-25T21:28:34.770Z,-9.40
2018-02-25T21:31:02.813Z,-9.40
2018-02-25T21:33:31.794Z,-9.40
2018-02-25T21:36:05.754Z,-9.40
2018-02-25T21:38:34.541Z,-9.20
2018-02-25T21:41:05.230Z,-9.10
2018-02-25T21:43:38.929Z,-9.20
2018-02-25T21:46:10.688Z,-9.10
2018-02-25T21:48:38.702Z,-9.20
2018-02-25T21:51:09.497Z,-9.30
2018-02-25T21:53:52.290Z,-9.30
2018-02-25T21:56:26.113Z,-9.30
2018-02-25T21:59:01.870Z,-9.40
2018-02-25T22:01:35.458Z,-9.40
2018-02-25T22:04:03.454Z,-9.40
2018-02-25T22:06:31.462Z,-9.40
2018-02-25T22:09:00.389Z,-9.40
2018-02-25T22:11:30.311Z,-9.40
2018-02-25T22:13:59.218Z,-9.40
2018-02-25T22:16:27.237Z,-9.40
2018-02-25T22:18:57.201Z,-9.60
2018-02-25T22:21:25.222Z,-9.60
2018-02-25T22:23:55.135Z,-9.60
2018-02-25T22:26:25.058Z,-9.70
2018-02-25T22:28:53.070Z,-9.70
2018-02-25T22:31:21.986Z,-9.60
2018-02-25T22:33:50.057Z,-9.60
2018-02-25T22:36:18.833Z,-9.90
2018-02-25T22:38:49.541Z,-9.90
2018-02-25T22:41:17.561Z,-9.90
2018-02-25T22:43:46.489Z,-9.90
2018-02-25T22:46:21.133Z,-10.10
2018-02-25T22:48:50.129Z,-10.10
2018-02-25T22:51:19.169Z,-10.10
2018-02-25T22:53:50.910Z,-10.00
2018-02-25T22:56:18.941Z,-10.00
2018-02-25T22:58:47.917Z,-10.20
2018-02-25T23:01:16.917Z,-10.20
2018-02-25T23:03:44.933Z,-10.30
2018-02-25T23:06:13.897Z,-10.40
2018-02-25T23:08:43.884Z,-10.30
2018-02-25T23:11:16.569Z,-10.40
2018-02-25T23:13:45.130Z,-10.40
2018-02-25T23:16:16.409Z,-10.40
2018-02-25T23:18:45.397Z,-10.20
2018-02-25T23:21:16.541Z,-10.10
2018-02-25T23:23:44.565Z,-10.20
2018-02-25T23:26:14.526Z,-10.30
2018-02-25T23:28:42.557Z,-10.40
2018-02-25T23:31:10.579Z,-10.50
2018-02-25T23:33:46.405Z,-10.50
2018-02-25T23:36:15.435Z,-10.60
2018-02-25T23:38:44.217Z,-10.70
2018-02-25T23:41:13.001Z,-10.60
2018-02-25T23:43:41.792Z,-10.60
2018-02-25T23:46:11.601Z,-10.60
2018-02-25T23:48:42.309Z,-10.70
2018-02-25T23:51:10.341Z,-10.70
2018-02-25T23:53:43.776Z,-10.70
2018-02-25T23:56:16.105Z,-10.90
2018-02-25T23:58:45.053Z,-11.00
